sensor_id;sensor_type;location;lat;lon;timestamp;temperature;humidity
14517;DHT22;7344;50.864;4.362;2022-12-29T00:01:36;12.10;99.90
14517;DHT22;7344;50.864;4.362;2022-12-29T00:04:02;12.10;99.90
14517;DHT22;7344;50.864;4.362;2022-12-29T00:06:31;12.10;99.90
14517;DHT22;7344;50.864;4.362;2022-12-29T00:08:57;12.10;99.90
14517;DHT22;7344;50.864;4.362;2022-12-29T00:11:26;12.20;99.90
14517;DHT22;7344;50.864;4.362;2022-12-29T00:13:53;12.20;99.90
14517;DHT22;7344;50.864;4.362;2022-12-29T00:16:40;12.30;99.90
14517;DHT22;7344;50.864;4.362;2022-12-29T00:19:05;12.30;99.90
14517;DHT22;7344;50.864;4.362;2022-12-29T00:21:31;12.30;99.90
14517;DHT22;7344;50.864;4.362;2022-12-29T00:24:18;12.30;99.90
14517;DHT22;7344;50.864;4.362;2022-12-29T00:26:49;12.30;99.90
14517;DHT22;7344;50.864;4.362;2022-12-29T00:29:37;12.30;99.90
14517;DHT22;7344;50.864;4.362;2022-12-29T00:32:21;12.30;99.90
14517;DHT22;7344;50.864;4.362;2022-12-29T00:35:09;12.40;99.90
14517;DHT22;7344;50.864;4.362;2022-12-29T00:37:43;12.50;99.90
14517;DHT22;7344;50.864;4.362;2022-12-29T00:40:32;12.50;99.90
14517;DHT22;7344;50.864;4.362;2022-12-29T00:43:16;12.50;99.90
14517;DHT22;7344;50.864;4.362;2022-12-29T00:46:03;12.60;99.90
14517;DHT22;7344;50.864;4.362;2022-12-29T00:48:32;12.60;99.90
14517;DHT22;7344;50.864;4.362;2022-12-29T00:51:16;12.60;99.90
14517;DHT22;7344;50.864;4.362;2022-12-29T00:53:42;12.60;99.90
14517;DHT22;7344;50.864;4.362;2022-12-29T00:56:08;12.60;99.90
14517;DHT22;7344;50.864;4.362;2022-12-29T00:58:33;12.60;99.90
14517;DHT22;7344;50.864;4.362;2022-12-29T01:01:07;12.60;99.90
14517;DHT22;7344;50.864;4.362;2022-12-29T01:03:34;12.60;99.90
14517;DHT22;7344;50.864;4.362;2022-12-29T01:06:02;12.60;99.90
14517;DHT22;7344;50.864;4.362;2022-12-29T01:08:28;12.60;99.90
14517;DHT22;7344;50.864;4.362;2022-12-29T01:11:02;12.60;99.90
14517;DHT22;7344;50.864;4.362;2022-12-29T01:13:28;12.60;99.90
14517;DHT22;7344;50.864;4.362;2022-12-29T01:15:54;12.60;99.90
14517;DHT22;7344;50.864;4.362;2022-12-29T01:18:20;12.50;99.90
14517;DHT22;7344;50.864;4.362;2022-12-29T01:20:46;12.40;99.90
14517;DHT22;7344;50.864;4.362;2022-12-29T01:23:12;12.30;99.90
14517;DHT22;7344;50.864;4.362;2022-12-29T01:25:37;12.30;99.90
14517;DHT22;7344;50.864;4.362;2022-12-29T01:28:03;12.20;99.90
14517;DHT22;7344;50.864;4.362;2022-12-29T01:30:29;12.10;99.90
14517;DHT22;7344;50.864;4.362;2022-12-29T01:32:55;12.00;99.90
14517;DHT22;7344;50.864;4.362;2022-12-29T01:35:20;11.80;99.90
14517;DHT22;7344;50.864;4.362;2022-12-29T01:37:46;11.70;99.90
14517;DHT22;7344;50.864;4.362;2022-12-29T01:40:12;11.70;99.90
14517;DHT22;7344;50.864;4.362;2022-12-29T01:42:37;11.60;99.90
14517;DHT22;7344;50.864;4.362;2022-12-29T01:45:14;11.60;99.90
14517;DHT22;7344;50.864;4.362;2022-12-29T01:47:53;11.60;99.90
14517;DHT22;7344;50.864;4.362;2022-12-29T01:50:30;11.60;99.90
14517;DHT22;7344;50.864;4.362;2022-12-29T01:53:00;11.60;99.90
14517;DHT22;7344;50.864;4.362;2022-12-29T01:55:29;11.60;99.90
14517;DHT22;7344;50.864;4.362;2022-12-29T01:57:57;11.60;99.90
14517;DHT22;7344;50.864;4.362;2022-12-29T02:00:23;11.60;99.90
14517;DHT22;7344;50.864;4.362;2022-12-29T02:02:58;11.60;99.90
14517;DHT22;7344;50.864;4.362;2022-12-29T02:08:04;11.60;99.90
14517;DHT22;7344;50.864;4.362;2022-12-29T02:10:36;11.60;99.90
14517;DHT22;7344;50.864;4.362;2022-12-29T02:13:03;11.50;99.90
14517;DHT22;7344;50.864;4.362;2022-12-29T02:15:41;11.40;99.90
14517;DHT22;7344;50.864;4.362;2022-12-29T02:18:22;11.30;99.90
14517;DHT22;7344;50.864;4.362;2022-12-29T02:32:01;10.60;99.90
14517;DHT22;7344;50.864;4.362;2022-12-29T02:37:11;10.60;99.90
14517;DHT22;7344;50.864;4.362;2022-12-29T02:45:28;10.50;99.90
14517;DHT22;7344;50.864;4.362;2022-12-29T02:48:09;10.50;99.90
14517;DHT22;7344;50.864;4.362;2022-12-29T02:51:02;10.50;99.90
14517;DHT22;7344;50.864;4.362;2022-12-29T02:53:29;10.50;99.90
14517;DHT22;7344;50.864;4.362;2022-12-29T02:56:15;10.50;99.90
14517;DHT22;7344;50.864;4.362;2022-12-29T02:58:40;10.50;99.90
14517;DHT22;7344;50.864;4.362;2022-12-29T03:01:59;10.60;99.90
14517;DHT22;7344;50.864;4.362;2022-12-29T03:13:28;10.30;99.90
14517;DHT22;7344;50.864;4.362;2022-12-29T03:19:08;10.10;99.90
14517;DHT22;7344;50.864;4.362;2022-12-29T03:21:39;10.10;99.90
14517;DHT22;7344;50.864;4.362;2022-12-29T03:24:28;10.10;99.90
14517;DHT22;7344;50.864;4.362;2022-12-29T03:26:58;10.10;99.90
14517;DHT22;7344;50.864;4.362;2022-12-29T03:29:24;10.10;99.90
14517;DHT22;7344;50.864;4.362;2022-12-29T03:31:53;10.20;99.90
14517;DHT22;7344;50.864;4.362;2022-12-29T03:34:24;10.20;99.90
14517;DHT22;7344;50.864;4.362;2022-12-29T03:37:02;10.20;99.90
14517;DHT22;7344;50.864;4.362;2022-12-29T03:39:28;10.30;99.90
14517;DHT22;7344;50.864;4.362;2022-12-29T03:42:04;10.30;99.90
14517;DHT22;7344;50.864;4.362;2022-12-29T03:44:36;10.40;99.90
14517;DHT22;7344;50.864;4.362;2022-12-29T03:47:03;10.40;99.90
14517;DHT22;7344;50.864;4.362;2022-12-29T03:49:28;10.40;99.90
14517;DHT22;7344;50.864;4.362;2022-12-29T03:51:54;10.40;99.90
14517;DHT22;7344;50.864;4.362;2022-12-29T03:54:20;10.50;99.90
14517;DHT22;7344;50.864;4.362;2022-12-29T03:56:48;10.60;99.90
14517;DHT22;7344;50.864;4.362;2022-12-29T03:59:14;10.60;99.90
14517;DHT22;7344;50.864;4.362;2022-12-29T04:01:39;10.60;99.90
14517;DHT22;7344;50.864;4.362;2022-12-29T04:04:05;10.50;99.90
14517;DHT22;7344;50.864;4.362;2022-12-29T04:06:31;10.60;99.90
14517;DHT22;7344;50.864;4.362;2022-12-29T04:08:56;10.50;99.90
14517;DHT22;7344;50.864;4.362;2022-12-29T04:11:22;10.50;99.90
14517;DHT22;7344;50.864;4.362;2022-12-29T04:13:48;10.40;99.90
14517;DHT22;7344;50.864;4.362;2022-12-29T04:16:23;10.40;99.90
14517;DHT22;7344;50.864;4.362;2022-12-29T04:18:49;10.30;99.90
14517;DHT22;7344;50.864;4.362;2022-12-29T04:21:14;10.30;99.90
14517;DHT22;7344;50.864;4.362;2022-12-29T04:23:40;10.30;99.90
14517;DHT22;7344;50.864;4.362;2022-12-29T04:26:07;10.30;99.90
14517;DHT22;7344;50.864;4.362;2022-12-29T04:28:34;10.30;99.90
14517;DHT22;7344;50.864;4.362;2022-12-29T04:31:00;10.30;99.90
14517;DHT22;7344;50.864;4.362;2022-12-29T04:33:26;10.30;99.90
14517;DHT22;7344;50.864;4.362;2022-12-29T04:35:52;10.30;99.90
14517;DHT22;7344;50.864;4.362;2022-12-29T04:38:19;10.30;99.90
14517;DHT22;7344;50.864;4.362;2022-12-29T04:40:46;10.40;99.90
14517;DHT22;7344;50.864;4.362;2022-12-29T04:43:12;10.40;99.90
14517;DHT22;7344;50.864;4.362;2022-12-29T04:45:39;10.50;99.90
14517;DHT22;7344;50.864;4.362;2022-12-29T04:48:11;10.50;99.90
14517;DHT22;7344;50.864;4.362;2022-12-29T04:50:36;10.50;99.90
14517;DHT22;7344;50.864;4.362;2022-12-29T04:53:02;10.50;99.90
14517;DHT22;7344;50.864;4.362;2022-12-29T04:55:28;10.50;99.90
14517;DHT22;7344;50.864;4.362;2022-12-29T04:57:53;10.50;99.90
14517;DHT22;7344;50.864;4.362;2022-12-29T05:00:19;10.60;99.90
14517;DHT22;7344;50.864;4.362;2022-12-29T05:02:47;10.60;99.90
14517;DHT22;7344;50.864;4.362;2022-12-29T05:05:13;10.70;99.90
14517;DHT22;7344;50.864;4.362;2022-12-29T05:07:39;10.60;99.90
14517;DHT22;7344;50.864;4.362;2022-12-29T05:10:05;10.70;99.90
14517;DHT22;7344;50.864;4.362;2022-12-29T05:12:35;10.70;99.90
14517;DHT22;7344;50.864;4.362;2022-12-29T05:15:01;10.70;99.90
14517;DHT22;7344;50.864;4.362;2022-12-29T05:17:28;10.70;99.90
14517;DHT22;7344;50.864;4.362;2022-12-29T05:19:56;10.70;99.90
14517;DHT22;7344;50.864;4.362;2022-12-29T05:22:22;10.70;99.90
14517;DHT22;7344;50.864;4.362;2022-12-29T05:24:48;10.80;99.90
14517;DHT22;7344;50.864;4.362;2022-12-29T05:27:14;10.90;99.90
14517;DHT22;7344;50.864;4.362;2022-12-29T05:29:39;10.90;99.90
14517;DHT22;7344;50.864;4.362;2022-12-29T05:32:05;11.00;99.90
14517;DHT22;7344;50.864;4.362;2022-12-29T05:34:33;11.00;99.90
14517;DHT22;7344;50.864;4.362;2022-12-29T05:36:58;11.00;99.90
14517;DHT22;7344;50.864;4.362;2022-12-29T05:39:24;11.10;99.90
14517;DHT22;7344;50.864;4.362;2022-12-29T05:41:49;11.10;99.90
14517;DHT22;7344;50.864;4.362;2022-12-29T05:44:15;11.10;99.90
14517;DHT22;7344;50.864;4.362;2022-12-29T05:46:41;11.00;99.90
14517;DHT22;7344;50.864;4.362;2022-12-29T05:49:09;11.00;99.90
14517;DHT22;7344;50.864;4.362;2022-12-29T05:51:35;11.00;99.90
14517;DHT22;7344;50.864;4.362;2022-12-29T05:54:00;11.00;99.90
14517;DHT22;7344;50.864;4.362;2022-12-29T05:56:28;11.00;99.90
14517;DHT22;7344;50.864;4.362;2022-12-29T05:58:54;11.00;99.90
14517;DHT22;7344;50.864;4.362;2022-12-29T06:01:26;11.00;99.90
14517;DHT22;7344;50.864;4.362;2022-12-29T06:03:52;11.00;99.90
14517;DHT22;7344;50.864;4.362;2022-12-29T06:06:17;10.90;99.90
14517;DHT22;7344;50.864;4.362;2022-12-29T06:08:43;11.00;99.90
14517;DHT22;7344;50.864;4.362;2022-12-29T06:11:09;10.90;99.90
14517;DHT22;7344;50.864;4.362;2022-12-29T06:13:34;10.90;99.90
14517;DHT22;7344;50.864;4.362;2022-12-29T06:16:01;10.80;99.90
14517;DHT22;7344;50.864;4.362;2022-12-29T06:18:30;10.80;99.90
14517;DHT22;7344;50.864;4.362;2022-12-29T06:21:05;10.80;99.90
14517;DHT22;7344;50.864;4.362;2022-12-29T06:23:31;10.80;99.90
14517;DHT22;7344;50.864;4.362;2022-12-29T06:25:57;10.80;99.90
14517;DHT22;7344;50.864;4.362;2022-12-29T06:28:23;10.70;99.90
14517;DHT22;7344;50.864;4.362;2022-12-29T06:30:49;10.70;99.90
14517;DHT22;7344;50.864;4.362;2022-12-29T06:33:15;10.70;99.90
14517;DHT22;7344;50.864;4.362;2022-12-29T06:35:42;10.70;99.90
14517;DHT22;7344;50.864;4.362;2022-12-29T06:38:08;10.80;99.90
14517;DHT22;7344;50.864;4.362;2022-12-29T06:40:36;10.80;99.90
14517;DHT22;7344;50.864;4.362;2022-12-29T06:43:05;10.90;99.90
14517;DHT22;7344;50.864;4.362;2022-12-29T06:45:30;10.90;99.90
14517;DHT22;7344;50.864;4.362;2022-12-29T06:47:56;11.10;99.90
14517;DHT22;7344;50.864;4.362;2022-12-29T06:50:22;11.10;99.90
14517;DHT22;7344;50.864;4.362;2022-12-29T06:52:47;11.10;99.90
14517;DHT22;7344;50.864;4.362;2022-12-29T06:55:13;11.10;99.90
14517;DHT22;7344;50.864;4.362;2022-12-29T06:57:38;11.10;99.90
14517;DHT22;7344;50.864;4.362;2022-12-29T07:00:04;11.20;99.90
14517;DHT22;7344;50.864;4.362;2022-12-29T07:02:30;11.10;99.90
14517;DHT22;7344;50.864;4.362;2022-12-29T07:04:56;11.10;99.90
14517;DHT22;7344;50.864;4.362;2022-12-29T07:07:22;11.10;99.90
14517;DHT22;7344;50.864;4.362;2022-12-29T07:09:47;11.10;99.90
14517;DHT22;7344;50.864;4.362;2022-12-29T07:12:19;11.10;99.90
14517;DHT22;7344;50.864;4.362;2022-12-29T07:14:45;11.10;99.90
14517;DHT22;7344;50.864;4.362;2022-12-29T07:17:10;11.00;99.90
14517;DHT22;7344;50.864;4.362;2022-12-29T07:19:42;11.00;99.90
14517;DHT22;7344;50.864;4.362;2022-12-29T07:22:09;11.10;99.90
14517;DHT22;7344;50.864;4.362;2022-12-29T07:24:34;11.10;99.90
14517;DHT22;7344;50.864;4.362;2022-12-29T07:27:00;11.10;99.90
14517;DHT22;7344;50.864;4.362;2022-12-29T07:29:25;11.20;99.90
14517;DHT22;7344;50.864;4.362;2022-12-29T07:31:51;11.20;99.90
14517;DHT22;7344;50.864;4.362;2022-12-29T07:34:17;11.20;99.90
14517;DHT22;7344;50.864;4.362;2022-12-29T07:36:42;11.30;99.90
14517;DHT22;7344;50.864;4.362;2022-12-29T07:39:08;11.30;99.90
14517;DHT22;7344;50.864;4.362;2022-12-29T07:41:33;11.20;99.90
14517;DHT22;7344;50.864;4.362;2022-12-29T07:44:00;11.10;99.90
14517;DHT22;7344;50.864;4.362;2022-12-29T07:46:25;11.10;99.90
14517;DHT22;7344;50.864;4.362;2022-12-29T07:48:51;11.20;99.90
14517;DHT22;7344;50.864;4.362;2022-12-29T07:51:17;11.20;99.90
14517;DHT22;7344;50.864;4.362;2022-12-29T07:53:42;11.20;99.90
14517;DHT22;7344;50.864;4.362;2022-12-29T07:56:08;11.30;99.90
14517;DHT22;7344;50.864;4.362;2022-12-29T07:58:33;11.30;99.90
14517;DHT22;7344;50.864;4.362;2022-12-29T08:00:59;11.30;99.90
14517;DHT22;7344;50.864;4.362;2022-12-29T08:03:25;11.20;99.90
14517;DHT22;7344;50.864;4.362;2022-12-29T08:05:53;11.20;99.90
14517;DHT22;7344;50.864;4.362;2022-12-29T08:08:20;11.20;99.90
14517;DHT22;7344;50.864;4.362;2022-12-29T08:10:45;11.20;99.90
14517;DHT22;7344;50.864;4.362;2022-12-29T08:13:11;11.20;99.90
14517;DHT22;7344;50.864;4.362;2022-12-29T08:15:40;11.20;99.90
14517;DHT22;7344;50.864;4.362;2022-12-29T08:18:06;11.20;99.90
14517;DHT22;7344;50.864;4.362;2022-12-29T08:20:32;11.20;99.90
14517;DHT22;7344;50.864;4.362;2022-12-29T08:23:00;11.30;99.90
14517;DHT22;7344;50.864;4.362;2022-12-29T08:25:31;11.30;99.90
14517;DHT22;7344;50.864;4.362;2022-12-29T08:27:57;11.30;99.90
14517;DHT22;7344;50.864;4.362;2022-12-29T08:30:23;11.30;99.90
14517;DHT22;7344;50.864;4.362;2022-12-29T08:32:48;11.20;99.90
14517;DHT22;7344;50.864;4.362;2022-12-29T08:35:14;11.30;99.90
14517;DHT22;7344;50.864;4.362;2022-12-29T08:37:40;11.30;99.90
14517;DHT22;7344;50.864;4.362;2022-12-29T08:40:06;11.30;99.90
14517;DHT22;7344;50.864;4.362;2022-12-29T08:42:32;11.20;99.90
14517;DHT22;7344;50.864;4.362;2022-12-29T08:44:58;11.20;99.90
14517;DHT22;7344;50.864;4.362;2022-12-29T08:47:25;11.30;99.90
14517;DHT22;7344;50.864;4.362;2022-12-29T08:49:50;11.20;99.90
14517;DHT22;7344;50.864;4.362;2022-12-29T08:52:16;11.30;99.90
14517;DHT22;7344;50.864;4.362;2022-12-29T08:54:42;11.40;99.90
14517;DHT22;7344;50.864;4.362;2022-12-29T08:57:11;11.30;99.90
14517;DHT22;7344;50.864;4.362;2022-12-29T08:59:36;11.40;99.90
14517;DHT22;7344;50.864;4.362;2022-12-29T09:02:02;11.40;99.90
14517;DHT22;7344;50.864;4.362;2022-12-29T09:04:27;11.40;99.90
14517;DHT22;7344;50.864;4.362;2022-12-29T09:06:53;11.30;99.90
14517;DHT22;7344;50.864;4.362;2022-12-29T09:09:19;11.20;99.90
14517;DHT22;7344;50.864;4.362;2022-12-29T09:11:45;11.20;99.90
14517;DHT22;7344;50.864;4.362;2022-12-29T09:14:13;11.30;99.90
14517;DHT22;7344;50.864;4.362;2022-12-29T09:16:39;11.20;99.90
14517;DHT22;7344;50.864;4.362;2022-12-29T09:19:24;11.20;99.90
14517;DHT22;7344;50.864;4.362;2022-12-29T09:21:49;11.20;99.90
14517;DHT22;7344;50.864;4.362;2022-12-29T09:24:15;11.10;99.90
14517;DHT22;7344;50.864;4.362;2022-12-29T09:26:40;11.10;99.90
14517;DHT22;7344;50.864;4.362;2022-12-29T09:29:06;11.10;99.90
14517;DHT22;7344;50.864;4.362;2022-12-29T09:31:31;11.10;99.90
14517;DHT22;7344;50.864;4.362;2022-12-29T09:33:57;11.00;99.90
14517;DHT22;7344;50.864;4.362;2022-12-29T09:36:23;10.80;99.90
14517;DHT22;7344;50.864;4.362;2022-12-29T09:38:48;10.70;99.90
14517;DHT22;7344;50.864;4.362;2022-12-29T09:41:38;10.60;99.90
14517;DHT22;7344;50.864;4.362;2022-12-29T09:46:48;10.60;99.90
14517;DHT22;7344;50.864;4.362;2022-12-29T09:52:14;10.60;99.90
14517;DHT22;7344;50.864;4.362;2022-12-29T09:57:49;10.80;99.90
14517;DHT22;7344;50.864;4.362;2022-12-29T10:00:36;10.90;99.90
14517;DHT22;7344;50.864;4.362;2022-12-29T10:03:17;11.10;99.90
14517;DHT22;7344;50.864;4.362;2022-12-29T10:06:10;11.30;99.90
14517;DHT22;7344;50.864;4.362;2022-12-29T10:14:41;11.40;99.90
14517;DHT22;7344;50.864;4.362;2022-12-29T10:17:38;11.40;99.90
14517;DHT22;7344;50.864;4.362;2022-12-29T10:25:58;11.40;99.90
14517;DHT22;7344;50.864;4.362;2022-12-29T10:31:31;11.50;99.90
14517;DHT22;7344;50.864;4.362;2022-12-29T10:34:00;11.60;99.90
14517;DHT22;7344;50.864;4.362;2022-12-29T10:36:38;11.60;99.90
14517;DHT22;7344;50.864;4.362;2022-12-29T10:41:39;11.80;99.90
14517;DHT22;7344;50.864;4.362;2022-12-29T10:44:09;11.80;99.90
14517;DHT22;7344;50.864;4.362;2022-12-29T10:46:38;11.80;99.90
14517;DHT22;7344;50.864;4.362;2022-12-29T10:49:06;11.90;99.90
14517;DHT22;7344;50.864;4.362;2022-12-29T10:51:40;11.80;99.90
14517;DHT22;7344;50.864;4.362;2022-12-29T10:54:26;11.90;99.90
14517;DHT22;7344;50.864;4.362;2022-12-29T10:56:59;11.80;99.90
14517;DHT22;7344;50.864;4.362;2022-12-29T10:59:29;12.00;99.90
14517;DHT22;7344;50.864;4.362;2022-12-29T11:07:38;12.20;99.90
14517;DHT22;7344;50.864;4.362;2022-12-29T11:13:00;12.20;99.90
14517;DHT22;7344;50.864;4.362;2022-12-29T11:15:44;12.20;99.90
14517;DHT22;7344;50.864;4.362;2022-12-29T11:18:38;12.30;99.90
14517;DHT22;7344;50.864;4.362;2022-12-29T11:21:30;12.30;99.90
14517;DHT22;7344;50.864;4.362;2022-12-29T11:23:58;12.70;99.90
14517;DHT22;7344;50.864;4.362;2022-12-29T11:26:25;12.80;99.90
14517;DHT22;7344;50.864;4.362;2022-12-29T11:29:29;12.90;99.90
14517;DHT22;7344;50.864;4.362;2022-12-29T11:32:17;12.90;99.90
14517;DHT22;7344;50.864;4.362;2022-12-29T11:34:43;12.60;99.90
14517;DHT22;7344;50.864;4.362;2022-12-29T11:37:38;12.50;99.90
14517;DHT22;7344;50.864;4.362;2022-12-29T11:40:20;12.20;99.90
14517;DHT22;7344;50.864;4.362;2022-12-29T11:42:58;12.10;99.90
14517;DHT22;7344;50.864;4.362;2022-12-29T11:45:27;11.90;99.90
14517;DHT22;7344;50.864;4.362;2022-12-29T11:48:06;11.80;99.90
14517;DHT22;7344;50.864;4.362;2022-12-29T11:50:35;11.60;99.90
14517;DHT22;7344;50.864;4.362;2022-12-29T11:53:01;11.50;99.90
14517;DHT22;7344;50.864;4.362;2022-12-29T11:55:28;11.50;99.90
14517;DHT22;7344;50.864;4.362;2022-12-29T11:57:57;11.50;99.90
14517;DHT22;7344;50.864;4.362;2022-12-29T12:00:24;11.50;99.90
14517;DHT22;7344;50.864;4.362;2022-12-29T12:03:04;11.40;99.90
14517;DHT22;7344;50.864;4.362;2022-12-29T12:05:38;11.40;99.90
14517;DHT22;7344;50.864;4.362;2022-12-29T12:10:45;11.30;99.90
14517;DHT22;7344;50.864;4.362;2022-12-29T12:13:33;11.30;99.90
14517;DHT22;7344;50.864;4.362;2022-12-29T12:16:13;11.30;99.90
14517;DHT22;7344;50.864;4.362;2022-12-29T12:19:00;11.20;99.90
14517;DHT22;7344;50.864;4.362;2022-12-29T12:21:31;11.20;99.90
14517;DHT22;7344;50.864;4.362;2022-12-29T12:29:41;11.30;99.90
14517;DHT22;7344;50.864;4.362;2022-12-29T12:32:34;11.30;99.90
14517;DHT22;7344;50.864;4.362;2022-12-29T12:35:13;11.30;99.90
14517;DHT22;7344;50.864;4.362;2022-12-29T12:37:58;11.50;99.90
14517;DHT22;7344;50.864;4.362;2022-12-29T12:40:38;11.50;99.90
14517;DHT22;7344;50.864;4.362;2022-12-29T12:43:32;11.50;99.90
14517;DHT22;7344;50.864;4.362;2022-12-29T12:58:25;11.50;99.90
14517;DHT22;7344;50.864;4.362;2022-12-29T13:04:05;11.40;99.90
14517;DHT22;7344;50.864;4.362;2022-12-29T13:12:01;11.30;99.90
14517;DHT22;7344;50.864;4.362;2022-12-29T13:17:22;11.40;99.90
14517;DHT22;7344;50.864;4.362;2022-12-29T13:22:41;11.40;99.90
14517;DHT22;7344;50.864;4.362;2022-12-29T13:28:03;11.60;99.90
14517;DHT22;7344;50.864;4.362;2022-12-29T13:30:49;11.50;99.90
14517;DHT22;7344;50.864;4.362;2022-12-29T13:33:19;11.50;99.90
14517;DHT22;7344;50.864;4.362;2022-12-29T13:38:24;11.40;99.90
14517;DHT22;7344;50.864;4.362;2022-12-29T13:41:01;11.30;99.90
14517;DHT22;7344;50.864;4.362;2022-12-29T13:43:30;11.20;99.90
14517;DHT22;7344;50.864;4.362;2022-12-29T13:46:05;11.10;99.90
14517;DHT22;7344;50.864;4.362;2022-12-29T13:48:39;11.30;99.90
14517;DHT22;7344;50.864;4.362;2022-12-29T13:51:05;11.30;99.90
14517;DHT22;7344;50.864;4.362;2022-12-29T13:56:20;11.40;99.90
14517;DHT22;7344;50.864;4.362;2022-12-29T14:02:07;11.20;99.90
14517;DHT22;7344;50.864;4.362;2022-12-29T14:04:35;11.10;99.90
14517;DHT22;7344;50.864;4.362;2022-12-29T14:07:20;11.10;99.90
14517;DHT22;7344;50.864;4.362;2022-12-29T14:09:47;11.10;99.90
14517;DHT22;7344;50.864;4.362;2022-12-29T14:12:29;11.10;99.90
14517;DHT22;7344;50.864;4.362;2022-12-29T14:17:37;11.10;99.90
14517;DHT22;7344;50.864;4.362;2022-12-29T14:20:05;11.20;99.90
14517;DHT22;7344;50.864;4.362;2022-12-29T14:25:55;11.10;99.90
14517;DHT22;7344;50.864;4.362;2022-12-29T14:28:46;11.00;99.90
14517;DHT22;7344;50.864;4.362;2022-12-29T14:36:41;11.10;99.90
14517;DHT22;7344;50.864;4.362;2022-12-29T14:53:01;9.30;99.90
14517;DHT22;7344;50.864;4.362;2022-12-29T14:55:45;9.10;99.90
14517;DHT22;7344;50.864;4.362;2022-12-29T14:58:32;9.00;99.90
14517;DHT22;7344;50.864;4.362;2022-12-29T15:01:02;8.90;99.90
14517;DHT22;7344;50.864;4.362;2022-12-29T15:03:32;8.90;99.90
14517;DHT22;7344;50.864;4.362;2022-12-29T15:06:07;8.90;99.90
14517;DHT22;7344;50.864;4.362;2022-12-29T15:11:20;8.70;99.90
14517;DHT22;7344;50.864;4.362;2022-12-29T15:13:46;8.60;99.90
14517;DHT22;7344;50.864;4.362;2022-12-29T15:18:57;8.40;99.90
14517;DHT22;7344;50.864;4.362;2022-12-29T15:21:26;8.40;99.90
14517;DHT22;7344;50.864;4.362;2022-12-29T15:23:55;8.40;99.90
14517;DHT22;7344;50.864;4.362;2022-12-29T15:26:22;8.40;99.90
14517;DHT22;7344;50.864;4.362;2022-12-29T15:28:54;8.40;99.90
14517;DHT22;7344;50.864;4.362;2022-12-29T15:31:22;8.40;99.90
14517;DHT22;7344;50.864;4.362;2022-12-29T15:34:10;8.40;99.90
14517;DHT22;7344;50.864;4.362;2022-12-29T15:36:38;8.50;99.90
14517;DHT22;7344;50.864;4.362;2022-12-29T15:39:30;8.40;99.90
14517;DHT22;7344;50.864;4.362;2022-12-29T15:41:59;8.40;99.90
14517;DHT22;7344;50.864;4.362;2022-12-29T15:44:39;8.40;99.90
14517;DHT22;7344;50.864;4.362;2022-12-29T15:47:12;8.40;99.90
14517;DHT22;7344;50.864;4.362;2022-12-29T15:49:42;8.40;99.90
14517;DHT22;7344;50.864;4.362;2022-12-29T15:52:09;8.50;99.90
14517;DHT22;7344;50.864;4.362;2022-12-29T15:54:36;8.60;99.90
14517;DHT22;7344;50.864;4.362;2022-12-29T15:57:03;8.60;99.90
14517;DHT22;7344;50.864;4.362;2022-12-29T15:59:32;8.60;99.90
14517;DHT22;7344;50.864;4.362;2022-12-29T16:01:59;8.60;99.90
14517;DHT22;7344;50.864;4.362;2022-12-29T16:04:28;8.60;99.90
14517;DHT22;7344;50.864;4.362;2022-12-29T16:07:05;8.50;99.90
14517;DHT22;7344;50.864;4.362;2022-12-29T16:09:35;8.50;99.90
14517;DHT22;7344;50.864;4.362;2022-12-29T16:12:07;8.50;99.90
14517;DHT22;7344;50.864;4.362;2022-12-29T16:14:55;8.40;99.90
14517;DHT22;7344;50.864;4.362;2022-12-29T16:17:26;8.50;99.90
14517;DHT22;7344;50.864;4.362;2022-12-29T16:19:56;8.40;99.90
14517;DHT22;7344;50.864;4.362;2022-12-29T16:22:34;8.40;99.90
14517;DHT22;7344;50.864;4.362;2022-12-29T16:25:06;8.40;99.90
14517;DHT22;7344;50.864;4.362;2022-12-29T16:27:37;8.40;99.90
14517;DHT22;7344;50.864;4.362;2022-12-29T16:30:12;8.40;99.90
14517;DHT22;7344;50.864;4.362;2022-12-29T16:32:46;8.40;99.90
14517;DHT22;7344;50.864;4.362;2022-12-29T16:37:45;8.40;99.90
14517;DHT22;7344;50.864;4.362;2022-12-29T16:40:28;8.30;99.90
14517;DHT22;7344;50.864;4.362;2022-12-29T16:43:01;8.30;99.90
14517;DHT22;7344;50.864;4.362;2022-12-29T16:50:41;8.30;99.90
14517;DHT22;7344;50.864;4.362;2022-12-29T16:53:28;8.20;99.90
14517;DHT22;7344;50.864;4.362;2022-12-29T16:55:55;8.20;99.90
14517;DHT22;7344;50.864;4.362;2022-12-29T16:58:30;8.30;99.90
14517;DHT22;7344;50.864;4.362;2022-12-29T17:00:58;8.40;99.90
14517;DHT22;7344;50.864;4.362;2022-12-29T17:03:34;8.40;99.90
14517;DHT22;7344;50.864;4.362;2022-12-29T17:06:00;8.40;99.90
14517;DHT22;7344;50.864;4.362;2022-12-29T17:08:40;8.40;99.90
14517;DHT22;7344;50.864;4.362;2022-12-29T17:11:32;8.40;99.90
14517;DHT22;7344;50.864;4.362;2022-12-29T17:16:51;8.40;99.90
14517;DHT22;7344;50.864;4.362;2022-12-29T17:19:25;8.40;99.90
14517;DHT22;7344;50.864;4.362;2022-12-29T17:21:52;8.40;99.90
14517;DHT22;7344;50.864;4.362;2022-12-29T17:24:20;8.40;99.90
14517;DHT22;7344;50.864;4.362;2022-12-29T17:27:05;8.50;99.90
14517;DHT22;7344;50.864;4.362;2022-12-29T17:29:37;8.50;99.90
14517;DHT22;7344;50.864;4.362;2022-12-29T17:32:06;8.50;99.90
14517;DHT22;7344;50.864;4.362;2022-12-29T17:34:35;8.50;99.90
14517;DHT22;7344;50.864;4.362;2022-12-29T17:37:01;8.50;99.90
14517;DHT22;7344;50.864;4.362;2022-12-29T17:39:26;8.50;99.90
14517;DHT22;7344;50.864;4.362;2022-12-29T17:41:52;8.50;99.90
14517;DHT22;7344;50.864;4.362;2022-12-29T17:44:19;8.50;99.90
14517;DHT22;7344;50.864;4.362;2022-12-29T17:46:46;8.50;99.90
14517;DHT22;7344;50.864;4.362;2022-12-29T17:49:14;8.50;99.90
14517;DHT22;7344;50.864;4.362;2022-12-29T17:51:41;8.50;99.90
14517;DHT22;7344;50.864;4.362;2022-12-29T17:54:19;8.60;99.90
14517;DHT22;7344;50.864;4.362;2022-12-29T17:56:45;8.60;99.90
14517;DHT22;7344;50.864;4.362;2022-12-29T17:59:12;8.60;99.90
14517;DHT22;7344;50.864;4.362;2022-12-29T18:01:45;8.60;99.90
14517;DHT22;7344;50.864;4.362;2022-12-29T18:04:16;8.50;99.90
14517;DHT22;7344;50.864;4.362;2022-12-29T18:06:43;8.50;99.90
14517;DHT22;7344;50.864;4.362;2022-12-29T18:09:09;8.60;99.90
14517;DHT22;7344;50.864;4.362;2022-12-29T18:11:40;8.50;99.90
14517;DHT22;7344;50.864;4.362;2022-12-29T18:14:16;8.50;99.90
14517;DHT22;7344;50.864;4.362;2022-12-29T18:16:42;8.50;99.90
14517;DHT22;7344;50.864;4.362;2022-12-29T18:19:08;8.40;99.90
14517;DHT22;7344;50.864;4.362;2022-12-29T18:21:35;8.40;99.90
14517;DHT22;7344;50.864;4.362;2022-12-29T18:24:01;8.30;99.90
14517;DHT22;7344;50.864;4.362;2022-12-29T18:26:28;8.30;99.90
14517;DHT22;7344;50.864;4.362;2022-12-29T18:28:57;8.20;99.90
14517;DHT22;7344;50.864;4.362;2022-12-29T18:31:30;8.20;99.90
14517;DHT22;7344;50.864;4.362;2022-12-29T18:33:58;8.20;99.90
14517;DHT22;7344;50.864;4.362;2022-12-29T18:36:25;8.30;99.90
14517;DHT22;7344;50.864;4.362;2022-12-29T18:38:51;8.30;99.90
14517;DHT22;7344;50.864;4.362;2022-12-29T18:41:23;8.30;99.90
14517;DHT22;7344;50.864;4.362;2022-12-29T18:43:52;8.30;99.90
14517;DHT22;7344;50.864;4.362;2022-12-29T18:46:18;8.30;99.90
14517;DHT22;7344;50.864;4.362;2022-12-29T18:48:44;8.40;99.90